Standort: A- 4920 Schildorn, St. Kollmann 6
Position: Ost 1327'49" Nord 4807'14" 563 m Seehhe
Werte der letzten 24 Stunden
Wetterdaten: aktuell Dienstag, 13.04.2021 21:45
Datum Zeit Temp. A. Feuchte A. Luftdruck Regen Richtung Richtung Sonnenschein UV Solar Windben
13.04.2021 21:45 1,4 C 88 % 1027,7 hPa 0,0 l/m N 360 0 min 0,0 UV-I 0 W/m 6,4 km/h
13.04.2021 20:45 1,6 C 88 % 1027,2 hPa 0,0 l/m N 360 0 min 0,0 UV-I 0 W/m 8,0 km/h
13.04.2021 19:45 1,8 C 88 % 1026,7 hPa 0,0 l/m N 360 0 min 0,0 UV-I 5 W/m 4,8 km/h
13.04.2021 18:45 1,9 C 87 % 1026,4 hPa 0,0 l/m N 360 0 min 0,0 UV-I 44 W/m 9,7 km/h
13.04.2021 17:45 1,4 C 88 % 1026,5 hPa 0,2 l/m N 5 0 min 0,0 UV-I 111 W/m 8,0 km/h
13.04.2021 16:45 3,2 C 86 % 1026,5 hPa 0,0 l/m N 5 0 min 0,5 UV-I 214 W/m 16,1 km/h
13.04.2021 15:45 2,8 C 85 % 1026,7 hPa 0,0 l/m N 5 14 min 0,9 UV-I 235 W/m 8,0 km/h
13.04.2021 14:45 2,3 C 88 % 1027,2 hPa 0,0 l/m N 5 3 min 1,9 UV-I 425 W/m 11,3 km/h
13.04.2021 13:45 2,2 C 88 % 1027,7 hPa 0,0 l/m N 5 0 min 1,0 UV-I 203 W/m 14,5 km/h
13.04.2021 12:45 1,7 C 88 % 1028,0 hPa 0,0 l/m N 11 0 min 1,7 UV-I 305 W/m 4,8 km/h
13.04.2021 11:45 1,1 C 88 % 1028,5 hPa 0,0 l/m N 5 9 min 1,1 UV-I 220 W/m 6,4 km/h
13.04.2021 10:45 1,2 C 88 % 1028,4 hPa 0,0 l/m N 5 19 min 1,4 UV-I 319 W/m 3,2 km/h
13.04.2021 09:45 0,7 C 89 % 1028,2 hPa 0,0 l/m N 5 10 min 0,7 UV-I 189 W/m 6,4 km/h
13.04.2021 08:45 0,4 C 89 % 1028,0 hPa 0,0 l/m N-NO 13 13 min 0,0 UV-I 185 W/m 4,8 km/h
13.04.2021 07:45 0,1 C 88 % 1027,9 hPa 0,2 l/m N 360 0 min 0,0 UV-I 41 W/m 8,0 km/h
13.04.2021 06:45 0,1 C 89 % 1027,3 hPa 0,0 l/m N 360 0 min 0,0 UV-I 11 W/m 8,0 km/h
13.04.2021 05:45 0,2 C 88 % 1027,0 hPa 0,0 l/m N 360 0 min 0,0 UV-I 0 W/m 11,3 km/h
13.04.2021 04:45 0,4 C 88 % 1026,9 hPa 0,0 l/m N 360 0 min 0,0 UV-I 0 W/m 9,7 km/h
13.04.2021 03:45 0,4 C 88 % 1026,9 hPa 0,2 l/m N 360 0 min 0,0 UV-I 0 W/m 8,0 km/h
13.04.2021 02:45 0,6 C 88 % 1026,6 hPa 0,0 l/m N 360 0 min 0,0 UV-I 0 W/m 4,8 km/h
13.04.2021 01:45 0,6 C 88 % 1026,6 hPa 0,0 l/m N 360 0 min 0,0 UV-I 0 W/m 6,4 km/h
13.04.2021 00:45 0,7 C 88 % 1026,7 hPa 0,0 l/m N 360 0 min 0,0 UV-I 0 W/m 6,4 km/h
12.04.2021 23:45 0,6 C 88 % 1026,9 hPa 0,0 l/m N 360 0 min 0,0 UV-I 0 W/m 8,0 km/h
12.04.2021 22:45 0,7 C 88 % 1026,9 hPa 0,0 l/m N 360 0 min 0,0 UV-I 0 W/m 6,4 km/h
12.04.2021 22:00 0,7 C 88 % 1026,9 hPa 0,0 l/m N 360 0 min 0,0 UV-I 0 W/m 12,9 km/h
_ Min-Zeit 06:54 15:17 18:00 - - - - - - 09:20
Minimum _ 0,0 C 84 % 1026,3 hPa - - - - - - 0,0 km/h
_ Max-Zeit 16:18 01:07 11:25 03:13 - - 08:07 13:30 14:47 16:50
Maximum _ 3,4 C 89 % 1028,6 hPa 0,2 l/m - - 1 min 2,2 UV-I 443 W/m 20,9 km/h
N
Durchschnitt _ 1,1 C 88 % 1027,2 hPa #0,7 l/m N - #1:08 h 1,1 UV-I 187 W/m 8,6 km/h
Daten ab 1. Mai 2002 - die Jahresstatistiken sind aber falsch (grere Aufzeichnungslcken)